createdAt,value
2022-10-25T00:00:57.190Z,100789.16
2022-10-25T00:03:26.877Z,100798.19
2022-10-25T00:05:54.728Z,100781.06
2022-10-25T00:08:22.588Z,100795.47
2022-10-25T00:10:50.504Z,100795.72
2022-10-25T00:13:18.647Z,100802.00
2022-10-25T00:15:46.509Z,100798.19
2022-10-25T00:18:14.407Z,100788.84
2022-10-25T00:20:43.685Z,100805.53
2022-10-25T00:23:11.845Z,100804.72
2022-10-25T00:25:39.745Z,100806.59
2022-10-25T00:28:07.614Z,100806.34
2022-10-25T00:30:35.502Z,100806.59
2022-10-25T00:33:03.655Z,100814.53
2022-10-25T00:35:31.498Z,100809.31
2022-10-25T00:38:00.883Z,100810.97
2022-10-25T00:40:28.794Z,100809.31
2022-10-25T00:42:56.920Z,100808.25
2022-10-25T00:45:25.299Z,100699.72
2022-10-25T00:47:55.991Z,100808.50
2022-10-25T00:50:41.310Z,100805.78
2022-10-25T00:53:12.407Z,100818.34
2022-10-25T00:55:42.069Z,100822.94
2022-10-25T00:58:11.049Z,100815.66
2022-10-25T01:00:38.882Z,100826.50
2022-10-25T01:03:07.074Z,100830.28
2022-10-25T01:05:34.996Z,100793.84
2022-10-25T01:08:03.293Z,100839.28
2022-10-25T01:10:32.543Z,100833.84
2022-10-25T01:13:01.633Z,100840.94
2022-10-25T01:15:32.362Z,100844.75
2022-10-25T01:18:03.663Z,100836.56
2022-10-25T01:21:14.259Z,100844.75
2022-10-25T01:23:51.631Z,100846.63
2022-10-25T01:26:57.291Z,100838.69
2022-10-25T01:29:54.563Z,100837.84
2022-10-25T01:32:25.144Z,100837.84
2022-10-25T01:34:55.840Z,100838.69
2022-10-25T01:37:25.695Z,100850.41
2022-10-25T01:39:55.575Z,100844.97
2022-10-25T01:42:27.030Z,100845.78
2022-10-25T01:44:58.248Z,100840.75
2022-10-25T01:47:29.973Z,100846.00
2022-10-25T01:49:59.617Z,100844.13
2022-10-25T01:52:27.956Z,100841.41
2022-10-25T01:54:55.857Z,100841.41
2022-10-25T01:57:43.787Z,100844.13
2022-10-25T02:00:12.726Z,100832.91
2022-10-25T02:02:49.962Z,100841.59
2022-10-25T02:05:19.487Z,100844.13
2022-10-25T02:07:51.164Z,100824.78
2022-10-25T02:10:21.267Z,100750.06
2022-10-25T02:12:52.678Z,100844.13
2022-10-25T02:15:22.495Z,100853.34
2022-10-25T02:17:54.691Z,100850.63
2022-10-25T02:20:23.478Z,100848.75
2022-10-25T02:22:51.609Z,100847.69
2022-10-25T02:25:19.512Z,100849.56
2022-10-25T02:27:47.540Z,100847.69
2022-10-25T02:30:15.568Z,100844.97
2022-10-25T02:32:43.820Z,100844.13
2022-10-25T02:35:15.461Z,100852.31
2022-10-25T02:37:43.536Z,100854.19
2022-10-25T02:40:12.000Z,100857.75
2022-10-25T02:42:40.129Z,100856.06
2022-10-25T02:45:10.820Z,100856.91
2022-10-25T02:47:38.713Z,100867.81
2022-10-25T02:50:07.103Z,100870.53
2022-10-25T02:52:36.679Z,100868.66
2022-10-25T02:55:04.699Z,100861.53
2022-10-25T02:57:34.589Z,100864.25
2022-10-25T03:00:02.524Z,100869.69
2022-10-25T03:02:31.792Z,100867.81
2022-10-25T03:04:59.635Z,100863.19
2022-10-25T03:07:27.548Z,100837.00
2022-10-25T03:09:56.812Z,100868.84
2022-10-25T03:12:25.018Z,100866.97
2022-10-25T03:14:52.896Z,100875.97
2022-10-25T03:17:20.785Z,100876.41
2022-10-25T03:19:48.652Z,100887.91
2022-10-25T03:22:16.826Z,100878.75
2022-10-25T03:24:44.746Z,100887.91
2022-10-25T03:27:15.157Z,100881.63
2022-10-25T03:29:43.064Z,100884.16
2022-10-25T03:32:11.216Z,100887.91
2022-10-25T03:34:39.124Z,100882.44
2022-10-25T03:37:07.018Z,100882.44
2022-10-25T03:39:34.995Z,100883.75
2022-10-25T03:42:03.204Z,100887.72
2022-10-25T03:44:32.443Z,100891.28
2022-10-25T03:47:00.279Z,100895.88
2022-10-25T03:49:28.164Z,100890.44
2022-10-25T03:51:58.880Z,100891.28
2022-10-25T03:54:29.500Z,100896.72
2022-10-25T03:56:57.479Z,100908.47
2022-10-25T03:59:25.335Z,100909.28
2022-10-25T04:01:54.888Z,100910.13
2022-10-25T04:04:22.819Z,100912.00
2022-10-25T04:06:50.770Z,100912.84
2022-10-25T04:09:18.698Z,100914.75
2022-10-25T04:11:46.557Z,100913.50
2022-10-25T04:14:14.706Z,100917.47
2022-10-25T04:16:42.633Z,100918.53
2022-10-25T04:19:11.849Z,100924.81
2022-10-25T04:21:39.732Z,100921.88
2022-10-25T04:24:08.160Z,100930.03
2022-10-25T04:26:36.599Z,100918.13
2022-10-25T04:29:04.957Z,100936.28
2022-10-25T04:31:32.926Z,100931.94
2022-10-25T04:34:01.075Z,100938.22
2022-10-25T04:36:31.233Z,100932.75
2022-10-25T04:38:59.116Z,100935.47
2022-10-25T04:41:27.104Z,100920.84
2022-10-25T04:43:55.219Z,100938.22
2022-10-25T04:46:23.123Z,100937.38
2022-10-25T04:48:51.136Z,100937.38
2022-10-25T04:51:19.149Z,100947.19
2022-10-25T04:53:48.721Z,100950.75
2022-10-25T04:56:16.755Z,100947.19
2022-10-25T04:58:44.654Z,100952.41
2022-10-25T05:01:13.573Z,100959.75
2022-10-25T05:03:42.087Z,100940.97
2022-10-25T05:06:10.596Z,100957.28
2022-10-25T05:08:40.077Z,100949.91
2022-10-25T05:11:09.305Z,100955.38
2022-10-25T05:13:38.141Z,100953.47
2022-10-25T05:16:06.531Z,100959.75
2022-10-25T05:18:34.739Z,100961.66
2022-10-25T05:21:05.742Z,100965.22
2022-10-25T05:23:34.434Z,100967.09
2022-10-25T05:26:03.407Z,100967.94
2022-10-25T05:28:32.745Z,100954.31
2022-10-25T05:31:04.270Z,100962.47
2022-10-25T05:33:32.177Z,100961.66
2022-10-25T05:36:00.488Z,100965.22
2022-10-25T05:38:28.429Z,100967.94
2022-10-25T05:40:56.599Z,100969.81
2022-10-25T05:43:24.891Z,100976.09
2022-10-25T05:45:54.446Z,100967.94
2022-10-25T05:48:22.309Z,100978.00
2022-10-25T05:50:53.435Z,100971.72
2022-10-25T05:53:27.505Z,100974.44
2022-10-25T05:55:55.401Z,100990.78
2022-10-25T05:58:23.267Z,100978.25
2022-10-25T06:00:51.218Z,100997.31
2022-10-25T06:03:20.800Z,100995.41
2022-10-25T06:05:48.656Z,101007.13
2022-10-25T06:08:16.561Z,101012.56
2022-10-25T06:10:44.409Z,101015.31
2022-10-25T06:13:12.585Z,101016.97
2022-10-25T06:15:40.468Z,100993.97
2022-10-25T06:18:08.379Z,100989.22
2022-10-25T06:20:37.679Z,101016.97
2022-10-25T06:23:08.048Z,101022.44
2022-10-25T06:25:38.379Z,101029.75
2022-10-25T06:28:06.491Z,101027.03
2022-10-25T06:30:34.401Z,101027.50
2022-10-25T06:33:02.529Z,101038.78
2022-10-25T06:35:30.546Z,101042.53
2022-10-25T06:38:01.998Z,101039.00
2022-10-25T06:40:30.092Z,101016.25
2022-10-25T06:42:58.508Z,101032.75
2022-10-25T06:45:26.559Z,101025.63
2022-10-25T06:47:54.703Z,101042.16
2022-10-25T06:50:22.872Z,101055.94
2022-10-25T06:52:51.300Z,101061.41
2022-10-25T06:55:20.833Z,101063.06
2022-10-25T06:57:49.006Z,101057.47
2022-10-25T07:00:17.227Z,101065.19
2022-10-25T07:02:45.820Z,101073.59
2022-10-25T07:05:14.221Z,101066.69
2022-10-25T07:07:42.304Z,101056.22
2022-10-25T07:10:10.654Z,101054.41
2022-10-25T07:12:40.494Z,101081.16
2022-10-25T07:15:11.358Z,101094.94
2022-10-25T07:17:39.420Z,101043.63
2022-10-25T07:20:08.655Z,101094.94
2022-10-25T07:22:36.946Z,101101.22
2022-10-25T07:25:05.500Z,101105.00
2022-10-25T07:27:34.135Z,101099.56
2022-10-25T07:30:03.415Z,101108.56
2022-10-25T07:32:31.592Z,101116.53
2022-10-25T07:34:59.772Z,101109.78
2022-10-25T07:37:27.707Z,101075.16
2022-10-25T07:39:55.655Z,101119.41
2022-10-25T07:42:23.880Z,101117.28
2022-10-25T07:44:51.916Z,101119.81
2022-10-25T07:47:21.372Z,101123.38
2022-10-25T07:49:49.307Z,101112.66
2022-10-25T07:52:17.489Z,101111.25
2022-10-25T07:54:45.349Z,101077.00
2022-10-25T07:57:13.229Z,101127.97
2022-10-25T07:59:41.093Z,101125.25
2022-10-25T08:02:09.928Z,101124.66
2022-10-25T08:04:39.239Z,101128.19
2022-10-25T08:07:07.127Z,101129.28
2022-10-25T08:09:38.426Z,101118.59
2022-10-25T08:12:07.111Z,101124.50
2022-10-25T08:14:37.898Z,101130.53
2022-10-25T08:17:08.776Z,101133.25
2022-10-25T08:19:36.636Z,101126.13
2022-10-25T08:22:06.184Z,101126.97
2022-10-25T08:24:35.965Z,101123.66
2022-10-25T08:27:03.816Z,101133.72
2022-10-25T08:29:31.661Z,101129.94
2022-10-25T08:32:01.176Z,101128.47
2022-10-25T08:34:30.970Z,101122.81
2022-10-25T08:37:00.996Z,101128.25
2022-10-25T08:39:30.278Z,101132.03
2022-10-25T08:41:59.282Z,101138.31
2022-10-25T08:44:35.706Z,101136.66
2022-10-25T08:47:04.591Z,101140.22
2022-10-25T08:49:35.686Z,101141.03
2022-10-25T08:52:03.972Z,101131.88
2022-10-25T08:54:35.083Z,101134.75
2022-10-25T08:57:15.461Z,101115.13
2022-10-25T08:59:44.328Z,101110.13
2022-10-25T09:02:17.995Z,101140.00
2022-10-25T09:04:46.006Z,101138.91
2022-10-25T09:07:20.621Z,101140.84
2022-10-25T09:09:52.245Z,101146.50
2022-10-25T09:12:22.432Z,101152.78
2022-10-25T09:14:51.916Z,101150.91
2022-10-25T09:17:20.652Z,101149.00
2022-10-25T09:20:04.846Z,101124.53
2022-10-25T09:22:33.113Z,101151.75
2022-10-25T09:25:03.631Z,101104.31
2022-10-25T09:27:36.113Z,101108.72
2022-10-25T09:30:09.584Z,101164.53
2022-10-25T09:32:39.646Z,101161.78
2022-10-25T09:35:09.044Z,101171.63
2022-10-25T09:37:37.784Z,101095.03
2022-10-25T09:40:08.914Z,101167.25
2022-10-25T09:42:38.928Z,101182.50
2022-10-25T09:45:15.820Z,101182.13
2022-10-25T09:47:45.083Z,101188.81
2022-10-25T09:50:16.328Z,101189.88
2022-10-25T09:52:47.093Z,101196.13
2022-10-25T09:55:32.523Z,101194.50
2022-10-25T09:58:00.413Z,101200.78
2022-10-25T10:00:28.368Z,101202.66
2022-10-25T10:02:56.825Z,101193.69
2022-10-25T10:05:24.838Z,101178.38
2022-10-25T10:07:54.696Z,101195.16
2022-10-25T10:10:24.545Z,101174.22
2022-10-25T10:15:32.190Z,101180.50
2022-10-25T10:18:30.439Z,101213.31
2022-10-25T10:21:09.419Z,101212.50
2022-10-25T10:23:38.856Z,101210.59
2022-10-25T10:26:11.839Z,101210.44
2022-10-25T10:28:45.040Z,101224.00
2022-10-25T10:31:12.938Z,101226.75
2022-10-25T10:33:40.826Z,101223.19
2022-10-25T10:36:22.619Z,101221.28
2022-10-25T10:38:50.504Z,101221.50
2022-10-25T10:41:23.865Z,101221.50
2022-10-25T10:43:53.195Z,101214.41
2022-10-25T10:46:23.315Z,101218.38
2022-10-25T10:48:54.598Z,101220.44
2022-10-25T10:51:42.920Z,101212.50
2022-10-25T10:54:23.880Z,101207.53
2022-10-25T10:56:58.619Z,101215.88
2022-10-25T10:59:34.429Z,101228.63
2022-10-25T11:02:21.784Z,101167.81
2022-10-25T11:04:50.057Z,101232.19
2022-10-25T11:07:23.338Z,101222.59
2022-10-25T11:09:51.430Z,101232.19
2022-10-25T11:12:20.157Z,101214.19
2022-10-25T11:14:49.537Z,101222.13
2022-10-25T11:17:18.562Z,101204.59
2022-10-25T11:20:14.561Z,101197.88
2022-10-25T11:22:54.131Z,101229.66
2022-10-25T11:25:31.213Z,101190.97
2022-10-25T11:28:07.378Z,101227.53
2022-10-25T11:30:39.576Z,101213.75
2022-10-25T11:33:42.937Z,101218.28
2022-10-25T11:36:16.830Z,101216.41
2022-10-25T11:38:56.598Z,101218.09
2022-10-25T11:41:30.111Z,101215.34
2022-10-25T11:44:09.556Z,101201.75
2022-10-25T11:46:42.262Z,101214.09
2022-10-25T11:49:28.270Z,101213.06
2022-10-25T11:52:18.747Z,101218.50
2022-10-25T11:54:49.783Z,101211.13
2022-10-25T11:57:22.056Z,101212.22
2022-10-25T11:59:56.679Z,101211.13
2022-10-25T12:02:47.719Z,101198.22
2022-10-25T12:05:22.967Z,101216.38
2022-10-25T12:07:56.236Z,101216.38
2022-10-25T12:10:30.185Z,101209.88
2022-10-25T12:13:00.058Z,101209.03
2022-10-25T12:15:34.323Z,101187.53
2022-10-25T12:18:03.697Z,101211.75
2022-10-25T12:20:31.631Z,101195.91
2022-10-25T12:23:00.641Z,101212.59
2022-10-25T12:25:30.568Z,101220.97
2022-10-25T12:28:04.808Z,101223.94
2022-10-25T12:30:34.135Z,101213.25
2022-10-25T12:33:09.164Z,101217.03
2022-10-25T12:35:41.120Z,101209.72
2022-10-25T12:38:12.416Z,101209.53
2022-10-25T12:40:42.777Z,101216.41
2022-10-25T12:43:15.217Z,101195.34
2022-10-25T12:45:58.278Z,101215.81
2022-10-25T12:48:45.990Z,101189.25
2022-10-25T12:51:20.326Z,101211.41
2022-10-25T12:54:27.079Z,101199.28
2022-10-25T12:56:58.106Z,101201.75
2022-10-25T12:59:41.970Z,101202.38
2022-10-25T13:02:18.455Z,101198.81
2022-10-25T13:05:23.262Z,101196.09
2022-10-25T13:07:51.214Z,101196.31
2022-10-25T13:10:21.321Z,101176.69
2022-10-25T13:13:00.228Z,101194.22
2022-10-25T13:15:28.100Z,101194.44
2022-10-25T13:18:04.238Z,101193.59
2022-10-25T13:20:52.165Z,101202.59
2022-10-25T13:24:00.644Z,101192.78
2022-10-25T13:26:33.169Z,101207.22
2022-10-25T13:29:02.764Z,101205.56
2022-10-25T13:31:48.023Z,101202.84
2022-10-25T13:34:39.610Z,101194.25
2022-10-25T13:37:42.157Z,101199.28
2022-10-25T13:40:23.514Z,101183.19
2022-10-25T13:42:58.556Z,101190.28
2022-10-25T13:45:33.430Z,101190.28
2022-10-25T13:48:09.078Z,101187.53
2022-10-25T13:50:43.370Z,101195.72
2022-10-25T13:53:16.546Z,101202.00
2022-10-25T13:55:47.821Z,101198.44
2022-10-25T13:58:44.831Z,101203.06
2022-10-25T14:01:58.003Z,101204.09
2022-10-25T14:04:36.747Z,101203.50
2022-10-25T14:07:40.982Z,101198.88
2022-10-25T14:10:14.911Z,101204.31
2022-10-25T14:12:44.474Z,101209.75
2022-10-25T14:15:14.912Z,101199.94
2022-10-25T14:17:43.498Z,101184.84
2022-10-25T14:20:17.956Z,101197.44
2022-10-25T14:22:47.904Z,101197.59
2022-10-25T14:25:21.813Z,101086.34
2022-10-25T14:27:49.793Z,101195.94
2022-10-25T14:30:25.190Z,101195.94
2022-10-25T14:32:53.554Z,101200.34
2022-10-25T14:35:21.693Z,101201.38
2022-10-25T14:37:49.578Z,101183.63
2022-10-25T14:40:21.074Z,101201.38
2022-10-25T14:42:49.579Z,101167.72
2022-10-25T14:45:20.471Z,101195.94
2022-10-25T14:47:48.347Z,101189.63
2022-10-25T14:50:16.451Z,101185.25
2022-10-25T14:52:45.556Z,101159.94
2022-10-25T14:55:20.181Z,101177.91
2022-10-25T14:57:48.079Z,101177.06
2022-10-25T15:00:20.132Z,101177.69
2022-10-25T15:02:48.917Z,101183.34
2022-10-25T15:05:18.925Z,101185.88
2022-10-25T15:07:48.019Z,101176.84
2022-10-25T15:10:36.523Z,101167.63
2022-10-25T15:13:04.798Z,101165.75
2022-10-25T15:15:34.707Z,101169.31
2022-10-25T15:18:02.629Z,101148.41
2022-10-25T15:20:31.351Z,101169.31
2022-10-25T15:23:03.571Z,101172.03
2022-10-25T15:25:33.968Z,101170.34
2022-10-25T15:28:10.481Z,101171.19
2022-10-25T15:30:39.272Z,101165.75
2022-10-25T15:33:11.126Z,101165.75
2022-10-25T15:35:47.298Z,101165.75
2022-10-25T15:38:17.573Z,101149.22
2022-10-25T15:40:47.188Z,101122.47
2022-10-25T15:43:15.105Z,101161.97
2022-10-25T15:45:43.085Z,101154.66
2022-10-25T15:48:14.022Z,101158.16
2022-10-25T15:50:43.665Z,101158.16
2022-10-25T15:53:12.207Z,101163.41
2022-10-25T15:55:40.358Z,101162.56
2022-10-25T15:58:10.786Z,101166.97
2022-10-25T16:00:39.596Z,101153.34
2022-10-25T16:03:08.847Z,101148.72
2022-10-25T16:05:37.785Z,101140.56
2022-10-25T16:08:05.779Z,101144.94
2022-10-25T16:10:34.079Z,101144.94
2022-10-25T16:13:03.927Z,101081.47
2022-10-25T16:15:33.184Z,101145.78
2022-10-25T16:18:01.063Z,101143.06
2022-10-25T16:20:30.654Z,101133.88
2022-10-25T16:22:58.947Z,101144.94
2022-10-25T16:25:30.588Z,101137.63
2022-10-25T16:28:00.909Z,101142.22
2022-10-25T16:30:31.724Z,101143.06
2022-10-25T16:33:01.262Z,101143.91
2022-10-25T16:35:29.179Z,101138.66
2022-10-25T16:37:57.162Z,101138.66
2022-10-25T16:40:25.139Z,101140.56
2022-10-25T16:42:54.599Z,101143.28
2022-10-25T16:45:23.949Z,101132.59
2022-10-25T16:47:51.930Z,101123.19
2022-10-25T16:50:23.645Z,101131.53
2022-10-25T16:52:51.858Z,101133.44
2022-10-25T16:55:19.758Z,101135.31
2022-10-25T17:00:18.322Z,101125.25
2022-10-25T17:02:47.081Z,101123.38
2022-10-25T17:05:18.190Z,101124.19
2022-10-25T17:07:47.811Z,101127.13
2022-10-25T17:10:16.499Z,101123.56
2022-10-25T17:12:47.188Z,101127.75
2022-10-25T17:15:15.564Z,101124.19
2022-10-25T17:17:45.633Z,101126.94
2022-10-25T17:20:14.926Z,101128.59
2022-10-25T17:22:44.507Z,101070.53
2022-10-25T17:25:14.287Z,101125.03
2022-10-25T17:27:47.926Z,101125.47
2022-10-25T17:30:17.329Z,101116.31
2022-10-25T17:32:45.908Z,101127.75
2022-10-25T17:35:14.232Z,101116.25
2022-10-25T17:37:44.314Z,101111.63
2022-10-25T17:40:14.935Z,101109.13
2022-10-25T17:42:43.504Z,101111.84
2022-10-25T17:45:12.307Z,101111.84
2022-10-25T17:47:42.674Z,101108.06
2022-10-25T17:50:12.925Z,101102.84
2022-10-25T17:52:42.465Z,101106.38
2022-10-25T17:55:11.367Z,101111.03
2022-10-25T17:57:40.897Z,101117.28
2022-10-25T18:00:13.117Z,101057.63
2022-10-25T18:02:41.524Z,101107.22
2022-10-25T18:05:25.649Z,101102.03
2022-10-25T18:07:53.853Z,101102.84
2022-10-25T18:10:22.056Z,101102.84
2022-10-25T18:12:51.866Z,101099.28
2022-10-25T18:15:19.958Z,101097.00
2022-10-25T18:17:48.303Z,101107.22
2022-10-25T18:20:17.170Z,101111.63
2022-10-25T18:22:45.565Z,101102.59
2022-10-25T18:25:13.543Z,101090.72
2022-10-25T18:27:41.479Z,101111.19
2022-10-25T18:30:14.567Z,101114.97
2022-10-25T18:32:42.677Z,101107.22
2022-10-25T18:35:11.080Z,101104.91
2022-10-25T18:37:38.949Z,101113.09
2022-10-25T18:40:08.659Z,101110.38
2022-10-25T18:42:38.203Z,101116.66
2022-10-25T18:45:09.093Z,101119.38
2022-10-25T18:47:38.342Z,101119.38
2022-10-25T18:50:07.245Z,101113.09
2022-10-25T18:52:35.493Z,101112.47
2022-10-25T18:55:03.369Z,101106.81
2022-10-25T18:57:31.738Z,101107.63
2022-10-25T18:59:59.705Z,101116.41
2022-10-25T19:02:27.947Z,101109.06
2022-10-25T19:04:58.683Z,101108.22
2022-10-25T19:07:26.740Z,101117.25
2022-10-25T19:09:55.175Z,101108.22
2022-10-25T19:12:23.067Z,101103.63
2022-10-25T19:14:51.153Z,101099.00
2022-10-25T19:17:19.032Z,101085.22
2022-10-25T19:19:46.887Z,101089.78
2022-10-25T19:22:16.254Z,101095.84
2022-10-25T19:24:44.133Z,101093.94
2022-10-25T19:27:11.999Z,101092.03
2022-10-25T19:29:39.914Z,101098.13
2022-10-25T19:32:08.090Z,101094.09
2022-10-25T19:34:35.978Z,101096.00
2022-10-25T19:37:04.476Z,101098.75
2022-10-25T19:39:34.063Z,101087.69
2022-10-25T19:42:02.199Z,101101.22
2022-10-25T19:44:31.068Z,101098.28
2022-10-25T19:47:01.133Z,101097.22
2022-10-25T19:49:28.969Z,101092.16
2022-10-25T19:51:58.168Z,101093.81
2022-10-25T19:54:26.208Z,101090.25
2022-10-25T19:56:55.485Z,101096.56
2022-10-25T19:59:23.460Z,101093.81
2022-10-25T20:01:51.406Z,101093.00
2022-10-25T20:04:19.650Z,101086.09
2022-10-25T20:06:47.580Z,101093.44
2022-10-25T20:09:15.437Z,101068.13
2022-10-25T20:11:43.309Z,101080.88
2022-10-25T20:14:12.858Z,101075.00
2022-10-25T20:16:41.160Z,101078.38
2022-10-25T20:19:09.528Z,101078.38
2022-10-25T20:21:37.767Z,101063.94
2022-10-25T20:24:07.233Z,101084.03
2022-10-25T20:26:35.888Z,101076.69
2022-10-25T20:29:05.724Z,101065.47
2022-10-25T20:31:35.569Z,101079.66
2022-10-25T20:34:04.048Z,101079.66
2022-10-25T20:36:32.213Z,101070.66
2022-10-25T20:39:00.193Z,101074.41
2022-10-25T20:41:29.006Z,101031.44
2022-10-25T20:43:57.952Z,101035.63
2022-10-25T20:46:26.039Z,101062.69
2022-10-25T20:48:55.451Z,101057.06
2022-10-25T20:51:23.371Z,101063.53
2022-10-25T20:53:51.569Z,101061.84
2022-10-25T20:56:19.844Z,101069.19
2022-10-25T20:58:47.821Z,101062.06
2022-10-25T21:01:15.884Z,101067.31
2022-10-25T21:03:44.125Z,101058.28
2022-10-25T21:06:14.536Z,101056.41
2022-10-25T21:08:42.557Z,101059.97
2022-10-25T21:11:11.689Z,101052.66
2022-10-25T21:13:40.052Z,101066.25
2022-10-25T21:16:08.546Z,101062.06
2022-10-25T21:18:37.280Z,101062.69
2022-10-25T21:21:06.466Z,101052.63
2022-10-25T21:23:36.018Z,101050.09
2022-10-25T21:26:04.511Z,101056.41
2022-10-25T21:28:33.471Z,101042.97
2022-10-25T21:31:02.223Z,101050.09
2022-10-25T21:33:30.523Z,101040.25
2022-10-25T21:36:03.311Z,101031.72
2022-10-25T21:38:31.265Z,101038.63
2022-10-25T21:41:08.469Z,101030.44
2022-10-25T21:43:36.473Z,101033.38
2022-10-25T21:46:07.692Z,101034.22
2022-10-25T21:48:35.876Z,101041.34
2022-10-25T21:51:03.737Z,101036.78
2022-10-25T21:53:33.118Z,101033.38
2022-10-25T21:56:10.505Z,101038.81
2022-10-25T21:58:38.633Z,101034.44
2022-10-25T22:01:11.143Z,101032.53
2022-10-25T22:03:39.570Z,101033.59
2022-10-25T22:06:07.938Z,101021.84
2022-10-25T22:08:35.824Z,101028.13
2022-10-25T22:11:04.967Z,101015.19
2022-10-25T22:13:34.790Z,101034.66
2022-10-25T22:16:04.718Z,101030.88
2022-10-25T22:18:32.795Z,101027.31
2022-10-25T22:21:03.311Z,101022.91
2022-10-25T22:23:31.841Z,101025.63
2022-10-25T22:26:02.863Z,101024.38
2022-10-25T22:28:30.883Z,101031.72
2022-10-25T22:31:01.939Z,101037.16
2022-10-25T22:33:30.227Z,101030.66
2022-10-25T22:38:35.466Z,101025.19
2022-10-25T22:41:04.205Z,101018.91
2022-10-25T22:43:32.440Z,101022.47
2022-10-25T22:46:02.713Z,101020.81
2022-10-25T22:48:34.074Z,101022.31
2022-10-25T22:51:01.955Z,101024.59
2022-10-25T22:53:30.133Z,101023.75
2022-10-25T22:55:58.558Z,101022.53
2022-10-25T22:58:26.592Z,101016.63
2022-10-25T23:00:59.833Z,101020.19
2022-10-25T23:03:31.932Z,101026.72
2022-10-25T23:05:59.959Z,101021.28
2022-10-25T23:08:27.936Z,101009.53
2022-10-25T23:11:00.231Z,101007.47
2022-10-25T23:13:28.599Z,101023.16
2022-10-25T23:15:56.440Z,101018.75
2022-10-25T23:18:24.674Z,101022.53
2022-10-25T23:20:54.527Z,101014.56
2022-10-25T23:23:22.930Z,101015.41
2022-10-25T23:25:50.980Z,101013.53
2022-10-25T23:28:19.049Z,101012.69
2022-10-25T23:30:46.977Z,101009.38
2022-10-25T23:33:15.479Z,101013.72
2022-10-25T23:35:43.328Z,101010.22
2022-10-25T23:38:13.563Z,101011.00
2022-10-25T23:40:41.420Z,101011.84
2022-10-25T23:43:09.839Z,101007.22
2022-10-25T23:45:37.740Z,101001.78
2022-10-25T23:48:05.888Z,100998.47
2022-10-25T23:50:33.717Z,100997.63
2022-10-25T23:53:01.859Z,100991.34
2022-10-25T23:55:31.112Z,100988.63
2022-10-25T23:57:59.005Z,100987.78
